Time;durP1;ratioP1;P1;durP2;ratioP2;P2;SDS_P1;SDS_P2;PMS_P1;PMS_P2;Temp;Humidity;BMP_temperature;BMP_pressure;BME280_temperature;BME280_humidity;BME280_pressure;Samples;Min_cycle;Max_cycle;Signal;HPM_P1;HPM_P2
2022/04/26 06:29:38;;;;;;;6.27;2.00;;;;;;;24.89;43.27;98683.75;6247721;23;20141;-92
2022/04/26 07:50:01;;;;;;;8.87;2.00;;;;;;;27.00;33.76;98697.88;6127353;23;20344;-94
2022/04/26 08:19:04;;;;;;;9.05;1.50;;;;;;;28.39;33.74;98691.16;6162563;23;20198;-91
2022/04/26 08:59:38;;;;;;;;;;;;;;;;;;;;;
2022/04/26 09:06:05;;;;;;;0.98;0.40;;;;;;;29.57;29.40;98704.66;6156027;23;20264;-92
2022/04/26 09:12:30;;;;;;;1.00;0.40;;;;;;;29.37;30.50;98695.78;6156127;23;20560;-91
2022/04/26 09:15:16;;;;;;;3.10;1.27;;;;;;;28.86;31.41;98708.22;6156635;23;20645;-93
2022/04/26 09:28:32;;;;;;;4.68;0.60;;;;;;;29.55;30.56;98685.13;6009633;23;20575;-93
2022/04/26 09:32:03;;;;;;;;;;;;;;;;;;;;;
2022/04/26 09:34:59;;;;;;;4.22;0.65;;;;;;;29.84;30.53;98681.13;6008935;23;20237;-92
2022/04/26 09:37:28;;;;;;;2.80;0.60;;;;;;;29.86;30.54;98680.88;6009797;23;20221;-91
2022/04/26 09:40:48;;;;;;;1.27;0.38;;;;;;;30.01;29.60;98689.53;6009763;23;20660;-91
2022/04/26 09:43:36;;;;;;;4.70;0.77;;;;;;;29.51;29.97;98680.34;6006343;23;20170;-91
2022/04/26 09:46:08;;;;;;;1.65;0.57;;;;;;;29.32;29.86;98676.69;6010090;23;20466;-91
2022/04/26 09:48:39;;;;;;;1.27;0.60;;;;;;;29.61;31.51;98673.47;6032986;23;20150;-90
2022/04/26 09:54:26;;;;;;;1.98;0.55;;;;;;;30.04;29.33;98667.50;5989249;23;20169;-90
2022/04/26 09:56:55;;;;;;;1.85;0.30;;;;;;;30.21;28.85;98655.16;5985870;23;20167;-90
2022/04/26 09:59:27;;;;;;;8.93;1.15;;;;;;;30.47;29.48;98663.13;6143785;23;20598;-91
2022/04/26 10:02:03;;;;;;;1.20;0.30;;;;;;;30.66;29.24;98656.72;6157568;23;20147;-89
2022/04/26 10:04:46;;;;;;;2.38;0.70;;;;;;;30.38;29.70;98651.72;6132109;23;20161;-90
2022/04/26 10:13:55;;;;;;;4.82;0.77;;;;;;;30.56;29.03;98642.84;6007063;23;20248;-90
2022/04/26 10:17:14;;;;;;;3.28;0.50;;;;;;;30.62;29.03;98641.97;6131710;23;20579;-91
2022/04/26 10:19:45;;;;;;;2.65;0.82;;;;;;;31.02;27.62;98637.91;6113791;23;20558;-90
2022/04/26 10:22:34;;;;;;;2.05;0.40;;;;;;;31.20;27.23;98636.25;6157661;23;20203;-91
2022/04/26 10:25:13;;;;;;;2.55;0.90;;;;;;;31.20;26.60;98630.84;6130901;23;20711;-93
2022/04/26 10:27:46;;;;;;;1.58;0.40;;;;;;;30.82;27.83;98623.69;6132013;23;20230;-91
2022/04/26 10:30:14;;;;;;;3.30;0.82;;;;;;;30.81;28.73;98635.56;6131758;23;20155;-90
2022/04/26 10:32:46;;;;;;;2.25;0.47;;;;;;;30.66;26.60;98629.66;6157306;23;20178;-93
2022/04/26 10:35:39;;;;;;;2.03;0.77;;;;;;;30.73;27.40;98632.31;6157865;23;20444;-91
2022/04/26 10:38:17;;;;;;;2.20;1.05;;;;;;;30.85;25.98;98631.34;6155884;23;20159;-91
2022/04/26 10:41:07;;;;;;;1.67;0.65;;;;;;;30.79;26.10;98626.03;6157429;23;20570;-92
2022/04/26 10:43:37;;;;;;;1.65;0.40;;;;;;;30.87;25.42;98621.13;6131876;23;20158;-92
2022/04/26 10:46:42;;;;;;;4.70;1.15;;;;;;;30.89;26.42;98623.63;6157401;23;20179;-92
2022/04/26 10:49:22;;;;;;;4.60;0.68;;;;;;;31.03;26.34;98631.44;6130599;23;20163;-92
2022/04/26 10:51:48;;;;;;;4.10;0.70;;;;;;;31.10;26.17;98625.13;6124226;23;20169;-90
2022/04/26 10:57:57;;;;;;;9.07;0.55;;;;;;;32.07;26.64;98623.16;6033160;23;20718;-89
2022/04/26 11:00:35;;;;;;;1.05;0.30;;;;;;;32.08;26.37;98616.66;6157708;23;20173;-91
2022/04/26 11:03:25;;;;;;;1.13;0.35;;;;;;;32.07;26.01;98623.16;6131454;23;20162;-91
2022/04/26 11:05:50;;;;;;;4.38;0.60;;;;;;;31.88;26.29;98626.09;6156172;23;20615;-91
2022/04/26 11:08:16;;;;;;;0.52;0.30;;;;;;;31.85;24.50;98623.84;6156127;23;20159;-91
2022/04/26 11:14:19;;;;;;;1.50;0.63;;;;;;;32.33;26.17;98619.22;6020366;23;20309;-93
2022/04/26 11:16:59;;;;;;;2.20;0.30;;;;;;;32.36;24.70;98613.34;6039373;23;20157;-94
2022/04/26 11:20:01;;;;;;;0.88;0.38;;;;;;;32.79;25.55;98619.31;6146037;23;20162;-90
2022/04/26 11:22:55;;;;;;;0.80;0.35;;;;;;;32.56;24.49;98611.16;6149959;23;20159;-94
2022/04/26 11:28:09;;;;;;;0.50;0.30;;;;;;;32.65;24.94;98612.44;6157208;23;20150;-90
2022/04/26 11:30:55;;;;;;;2.42;0.50;;;;;;;32.80;24.78;98599.25;6156633;23;20151;-90
2022/04/26 11:33:23;;;;;;;2.65;0.50;;;;;;;32.76;25.56;98608.09;6157159;23;20194;-91
2022/04/26 11:36:06;;;;;;;2.25;0.75;;;;;;;32.73;23.33;98606.66;6156734;23;20143;-92
2022/04/26 11:38:40;;;;;;;2.10;0.90;;;;;;;32.42;23.93;98603.41;6156709;23;20159;-92
2022/04/26 11:41:09;;;;;;;4.68;0.55;;;;;;;32.79;23.70;98610.34;6157044;23;20567;-91
2022/04/26 11:43:36;;;;;;;2.40;0.70;;;;;;;32.95;24.51;98604.19;6155608;23;20614;-91
2022/04/26 11:46:03;;;;;;;2.28;0.50;;;;;;;32.63;23.71;98602.88;6130890;23;20187;-90
2022/04/26 11:48:34;;;;;;;1.13;0.50;;;;;;;33.10;23.91;98593.72;6156624;23;20183;-91
2022/04/26 11:51:00;;;;;;;1.35;0.65;;;;;;;32.77;22.45;98590.75;6131957;23;20163;-90
2022/04/26 11:53:37;;;;;;;2.53;0.55;;;;;;;33.09;23.51;98592.06;6156946;23;20154;-90
2022/04/26 11:56:05;;;;;;;0.30;0.20;;;;;;;33.33;23.13;98584.72;6156900;23;20139;-92
2022/04/26 11:58:34;;;;;;;3.05;0.30;;;;;;;33.11;22.73;98576.34;6157192;23;20162;-93
2022/04/26 12:01:15;;;;;;;2.40;0.43;;;;;;;33.21;22.87;98576.56;6156401;23;20644;-93
2022/04/26 12:07:17;;;;;;;2.28;0.40;;;;;;;33.60;21.97;98574.13;6080887;23;20163;-92
2022/04/26 12:09:43;;;;;;;1.27;0.70;;;;;;;33.19;21.60;98570.56;6156852;23;20233;-93
2022/04/26 12:12:10;;;;;;;2.85;0.30;;;;;;;33.44;21.37;98569.44;6157140;23;20571;-91
2022/04/26 12:14:40;;;;;;;2.50;1.48;;;;;;;33.18;22.35;98559.91;6156312;23;20151;-92
2022/04/26 12:17:17;;;;;;;1.65;0.50;;;;;;;32.60;23.07;98557.25;6130661;23;20179;-91
2022/04/26 12:19:45;;;;;;;3.42;0.30;;;;;;;32.87;22.74;98560.28;6130487;23;20205;-92
2022/04/26 12:25:29;;;;;;;;;;;;;;;;;;;;;
2022/04/26 12:28:08;;;;;;;3.13;0.38;;;;;;;32.81;23.04;98540.34;6038814;23;20241;-92
2022/04/26 12:30:37;;;;;;;1.98;0.80;;;;;;;32.28;23.33;98543.13;6140401;23;20171;-92
2022/04/26 12:33:06;;;;;;;4.40;1.10;;;;;;;32.62;23.91;98547.81;6156369;23;20151;-92
2022/04/26 12:35:32;;;;;;;4.00;0.43;;;;;;;32.77;23.07;98548.16;6130631;23;20147;-93
2022/04/26 12:38:13;;;;;;;0.70;0.43;;;;;;;32.60;22.73;98546.38;6156941;23;20147;-92
2022/04/26 12:40:39;;;;;;;2.67;0.52;;;;;;;32.32;23.70;98544.31;6156845;23;20151;-92
2022/04/26 12:43:28;;;;;;;1.50;0.65;;;;;;;32.50;22.52;98536.06;6156484;23;20214;-92
2022/04/26 12:46:01;;;;;;;3.08;0.70;;;;;;;32.22;24.11;98533.22;6130285;23;20649;-91
2022/04/26 12:51:29;;;;;;;3.05;0.55;;;;;;;32.35;23.97;98540.31;6156064;23;20146;-92
2022/04/26 12:54:07;;;;;;;3.65;0.60;;;;;;;32.46;24.62;98536.78;6156353;23;20186;-91
2022/04/26 12:56:57;;;;;;;2.20;0.73;;;;;;;32.36;23.93;98531.13;6131055;23;20480;-92
2022/04/26 12:59:22;;;;;;;3.15;0.30;;;;;;;32.00;25.18;98537.50;6130346;23;20147;-91
2022/04/26 13:01:48;;;;;;;2.00;0.32;;;;;;;32.03;24.59;98539.75;6155858;23;20167;-91
2022/04/26 13:04:13;;;;;;;7.78;0.60;;;;;;;31.93;24.72;98534.88;6130398;23;20243;-90
2022/04/26 13:06:38;;;;;;;1.73;0.57;;;;;;;31.81;25.43;98530.50;6130216;23;20219;-91
2022/04/26 13:09:04;;;;;;;2.80;0.28;;;;;;;31.64;24.92;98530.31;6155835;23;20182;-91
2022/04/26 13:11:30;;;;;;;6.85;0.65;;;;;;;31.23;24.92;98535.63;6156332;23;20147;-90
2022/04/26 13:13:56;;;;;;;1.65;0.57;;;;;;;30.92;25.43;98528.50;6130488;23;20583;-91
2022/04/26 13:16:21;;;;;;;3.38;0.40;;;;;;;30.63;25.68;98523.75;6155862;23;20154;-90
2022/04/26 13:18:46;;;;;;;1.00;0.47;;;;;;;30.56;26.50;98526.50;6155855;23;20538;-91
2022/04/26 13:21:13;;;;;;;3.45;0.43;;;;;;;30.44;25.85;98531.00;6130266;23;20615;-91
2022/04/26 13:23:38;;;;;;;3.45;0.73;;;;;;;30.23;26.33;98531.38;6155922;23;20174;-91
2022/04/26 13:26:06;;;;;;;3.97;0.70;;;;;;;29.88;26.96;98531.00;6155751;23;20619;-90
2022/04/26 13:28:31;;;;;;;3.92;0.75;;;;;;;29.96;27.14;98535.31;6155835;23;20538;-91
2022/04/26 13:30:57;;;;;;;2.78;0.40;;;;;;;30.36;26.98;98528.59;6156063;23;20174;-91
2022/04/26 13:33:22;;;;;;;3.38;1.13;;;;;;;30.48;28.11;98529.50;6157836;23;20226;-91
2022/04/26 13:35:48;;;;;;;4.53;0.60;;;;;;;30.49;27.41;98531.16;6158491;23;20157;-91
2022/04/26 13:38:15;;;;;;;2.58;0.70;;;;;;;30.35;26.05;98529.59;6132384;23;20158;-92
2022/04/26 13:40:41;;;;;;;3.05;0.57;;;;;;;30.45;27.03;98535.38;6157843;23;20151;-91
2022/04/26 13:43:08;;;;;;;2.80;0.50;;;;;;;30.66;27.61;98531.44;6157976;23;20251;-93
2022/04/26 13:45:34;;;;;;;8.02;1.02;;;;;;;30.77;28.41;98526.09;6157633;23;20179;-92
2022/04/26 13:48:04;;;;;;;4.63;0.95;;;;;;;30.91;27.91;98533.06;6132129;23;20165;-93
2022/04/26 13:50:29;;;;;;;10.25;2.65;;;;;;;31.00;27.83;98529.00;6157699;23;20158;-93
2022/04/26 13:52:56;;;;;;;11.00;2.17;;;;;;;31.08;28.41;98527.06;6157930;23;20147;-93
2022/04/26 13:55:26;;;;;;;7.18;2.42;;;;;;;31.11;27.24;98523.88;6157714;23;20474;-92
2022/04/26 13:57:52;;;;;;;9.18;2.03;;;;;;;31.02;27.28;98524.22;6131903;23;20171;-93
2022/04/26 14:00:21;;;;;;;9.85;1.27;;;;;;;30.99;27.61;98523.81;6157653;23;20201;-92
2022/04/26 14:02:50;;;;;;;3.15;0.75;;;;;;;30.95;27.96;98522.59;6157627;23;20160;-93
2022/04/26 14:05:16;;;;;;;3.25;0.60;;;;;;;30.87;28.01;98529.09;6157455;23;20186;-92
2022/04/26 14:07:42;;;;;;;2.28;0.77;;;;;;;30.77;27.25;98526.09;6156488;23;20359;-93
2022/04/26 14:10:11;;;;;;;1.73;0.40;;;;;;;30.66;27.13;98518.72;6158662;23;20261;-93
2022/04/26 14:12:58;;;;;;;;;;;;;;;;;;;;;
2022/04/26 14:33:27;;;;;;;7.00;0.68;;;;;;;29.01;31.06;98474.91;5851891;24;20201;-94
2022/04/26 14:35:53;;;;;;;5.93;0.80;;;;;;;29.10;31.54;98473.63;5845312;24;20155;-92
2022/04/26 14:49:32;;;;;;;;;;;;;;;;;;;;;
2022/04/26 14:52:39;;;;;;;;;;;;;;;;;;;;;
2022/04/26 14:58:35;;;;;;;;;;;;;;;;;;;;;
2022/04/26 15:01:04;;;;;;;1.45;0.47;;;;;;;28.17;33.58;98475.91;5947147;24;20270;-91
2022/04/26 15:03:30;;;;;;;1.38;0.45;;;;;;;28.16;33.69;98487.72;6127386;23;20155;-91
2022/04/26 15:05:58;;;;;;;2.40;1.25;;;;;;;28.23;33.97;98489.38;6156897;23;20182;-91
2022/04/26 15:11:44;;;;;;;;;;;;;;;;;;;;;
2022/04/26 15:17:14;;;;;;;1.40;0.52;;;;;;;27.98;33.10;98509.88;6157265;23;20142;-92
2022/04/26 15:34:22;;;;;;;;;;;;;;;;;;;;;
2022/04/26 15:36:51;;;;;;;3.63;0.95;;;;;;;27.22;33.43;98590.00;5948295;23;20679;-93
2022/04/26 15:39:16;;;;;;;3.20;1.20;;;;;;;26.51;36.11;98625.25;5982788;23;20155;-91
2022/04/26 15:41:50;;;;;;;3.38;0.75;;;;;;;26.15;36.62;98628.84;5959010;24;20173;-92
2022/04/26 15:44:16;;;;;;;1.95;0.95;;;;;;;25.58;38.43;98606.50;6033313;23;20355;-92
2022/04/26 15:46:42;;;;;;;7.07;2.72;;;;;;;25.29;41.66;98630.69;6131960;23;20211;-93
2022/04/26 15:49:08;;;;;;;2.27;0.90;;;;;;;24.42;47.95;98642.91;6156726;23;20147;-91
2022/04/26 15:51:37;;;;;;;3.67;1.07;;;;;;;23.99;51.17;98648.88;6132227;23;20173;-94
2022/04/26 15:54:03;;;;;;;4.10;0.80;;;;;;;23.63;52.02;98652.09;6156976;23;20166;-93
2022/04/26 15:56:37;;;;;;;2.40;0.90;;;;;;;23.43;54.88;98656.19;6156873;23;20151;-95
2022/04/26 15:59:31;;;;;;;4.30;1.00;;;;;;;23.00;55.33;98657.47;6157513;23;20213;-95
2022/04/26 16:01:57;;;;;;;12.77;2.87;;;;;;;22.79;56.46;98659.84;6156015;23;20170;-91
2022/04/26 16:04:22;;;;;;;2.90;1.50;;;;;;;22.23;56.12;98673.16;6156762;23;20147;-94
2022/04/26 16:06:48;;;;;;;18.67;3.83;;;;;;;22.01;57.80;98671.97;6130936;23;20666;-90
2022/04/26 16:26:50;;;;;;;;;;;;;;;;;;;;;
2022/04/26 16:30:32;;;;;;;;;;;;;;;;;;;;;
2022/04/26 17:12:54;;;;;;;;;;;;;;;;;;;;;
2022/04/26 17:16:12;;;;;;;3.10;1.00;;;;;;;22.23;56.46;98691.84;5688959;25;20233;-91
2022/04/26 17:22:22;;;;;;;2.37;1.00;;;;;;;22.17;54.11;98703.22;5690357;25;20177;-91
2022/04/26 17:25:16;;;;;;;1.90;1.07;;;;;;;22.09;54.49;98713.88;5841648;24;20169;-91
2022/04/26 17:28:04;;;;;;;2.27;1.10;;;;;;;21.89;55.20;98721.31;5871607;24;20571;-91
2022/04/26 17:30:35;;;;;;;1.33;0.67;;;;;;;21.73;55.31;98729.22;5981814;24;20162;-90
2022/04/26 17:45:33;;;;;;;;;;;;;;;;;;;;;
2022/04/26 17:49:21;;;;;;;;;;;;;;;;;;;;;
2022/04/26 17:51:38;;;;;;;5.90;1.67;;;;;;;21.88;58.01;98800.50;5813668;24;20164;-89
2022/04/26 17:57:29;;;;;;;2.23;1.00;;;;;;;20.62;63.43;98833.84;6009238;23;20214;-90
2022/04/26 18:00:00;;;;;;;5.00;1.10;;;;;;;20.51;64.93;98838.56;6070973;23;20161;-90
2022/04/26 18:03:00;;;;;;;4.93;1.30;;;;;;;20.22;67.96;98844.88;6095839;23;20215;-91
2022/04/26 18:13:22;;;;;;;;;;;;;;;;;;;;;
2022/04/26 18:16:42;;;;;;;6.40;1.47;;;;;;;20.40;70.63;98870.72;6215487;23;20645;-92
2022/04/26 18:19:18;;;;;;;2.93;1.47;;;;;;;20.28;70.63;98870.09;6189024;23;20236;-91
2022/04/26 18:25:02;;;;;;;2.23;1.40;;;;;;;20.38;72.63;98876.19;6097291;23;20215;-95
2022/04/26 18:35:19;;;;;;;;;;;;;;;;;;;;;
2022/04/26 18:38:10;;;;;;;5.40;1.17;;;;;;;20.13;75.77;98872.34;6059991;23;20605;-94
2022/04/26 18:40:44;;;;;;;3.43;1.90;;;;;;;20.51;73.74;98870.50;6190630;23;20154;-92
2022/04/26 18:43:16;;;;;;;3.20;1.63;;;;;;;20.63;72.61;98859.50;6191013;23;20156;-92
2022/04/26 18:45:58;;;;;;;6.00;1.60;;;;;;;20.41;74.29;98865.25;6190775;23;20178;-93
2022/04/26 18:48:37;;;;;;;;;;;;;;;;;;;;;
2022/04/26 18:51:23;;;;;;;6.17;1.60;;;;;;;19.57;72.03;98866.25;6218059;23;20241;-92
2022/04/26 18:53:52;;;;;;;1.67;0.53;;;;;;;19.26;70.98;98860.25;6190995;23;20162;-92
2022/04/26 18:56:17;;;;;;;1.43;0.77;;;;;;;19.40;72.88;98853.69;6190966;23;20220;-92
2022/04/26 18:58:43;;;;;;;6.03;1.50;;;;;;;19.37;73.96;98859.25;6217012;23;20475;-90
2022/04/26 19:01:08;;;;;;;4.33;1.20;;;;;;;18.99;73.76;98847.72;6190668;23;20153;-90
2022/04/26 19:03:34;;;;;;;1.90;1.00;;;;;;;18.99;74.44;98839.72;6217185;23;20149;-91
2022/04/26 19:06:04;;;;;;;4.37;1.53;;;;;;;19.11;74.43;98831.59;6190452;23;20174;-90
2022/04/26 19:08:34;;;;;;;1.27;0.80;;;;;;;18.93;74.86;98834.97;6190464;23;20196;-90
2022/04/26 19:13:52;;;;;;;1.77;1.20;;;;;;;18.60;75.79;98839.84;6217179;23;20217;-90
2022/04/26 19:16:17;;;;;;;6.23;1.10;;;;;;;18.98;73.93;98850.47;6217408;23;20141;-89
2022/04/26 19:18:43;;;;;;;2.53;0.83;;;;;;;19.32;73.33;98874.78;6190739;23;20154;-89
2022/04/26 19:21:08;;;;;;;4.97;1.27;;;;;;;19.52;72.01;98889.78;6217279;23;20161;-89
2022/04/26 19:23:35;;;;;;;2.60;1.10;;;;;;;19.57;72.12;98896.31;6216639;23;20150;-89
2022/04/26 19:26:01;;;;;;;1.73;0.70;;;;;;;19.36;73.31;98900.97;6190257;23;20522;-90
2022/04/26 19:28:28;;;;;;;1.90;1.00;;;;;;;18.95;75.42;98904.72;6217102;23;20138;-90
2022/04/26 19:30:54;;;;;;;10.57;1.57;;;;;;;19.10;75.57;98877.75;6190372;23;20224;-90
2022/04/26 19:33:19;;;;;;;2.60;1.30;;;;;;;19.30;74.35;98882.06;6190372;23;20203;-91
2022/04/26 19:35:48;;;;;;;1.77;0.73;;;;;;;19.41;73.23;98892.59;6216529;23;20605;-89
2022/04/26 19:38:16;;;;;;;6.13;1.07;;;;;;;19.52;72.39;98914.53;6217118;23;20146;-89
2022/04/26 19:40:41;;;;;;;4.73;1.30;;;;;;;19.64;72.79;98931.16;6216817;23;20145;-89
2022/04/26 19:43:07;;;;;;;3.67;0.93;;;;;;;19.76;72.81;98945.16;6216418;23;20163;-89
2022/04/26 19:45:32;;;;;;;3.23;1.53;;;;;;;19.80;72.57;98944.72;6190086;23;20182;-90
2022/04/26 19:47:58;;;;;;;2.20;1.13;;;;;;;19.88;72.33;98951.97;6216406;23;20229;-90
2022/04/26 19:53:07;;;;;;;4.13;1.33;;;;;;;19.74;72.52;98965.72;6217109;23;20145;-90
2022/04/26 19:55:33;;;;;;;6.40;2.07;;;;;;;19.59;72.69;98973.31;6216327;23;20146;-89
2022/04/26 19:57:58;;;;;;;1.77;1.10;;;;;;;19.39;72.34;98972.47;6216311;23;20164;-89
2022/04/26 20:00:23;;;;;;;3.43;1.40;;;;;;;19.44;72.41;98969.41;6216240;23;20457;-89
2022/04/26 20:02:49;;;;;;;4.53;1.40;;;;;;;19.50;72.58;98950.22;6190006;23;20231;-89
2022/04/26 20:05:15;;;;;;;5.03;1.63;;;;;;;19.61;72.07;98944.75;6216186;23;20184;-89
2022/04/26 20:07:40;;;;;;;5.20;1.43;;;;;;;19.66;71.67;98926.53;6190228;23;20156;-90
2022/04/26 20:10:08;;;;;;;3.03;1.30;;;;;;;19.68;71.51;98924.56;6216166;23;20615;-91
2022/04/26 20:12:35;;;;;;;4.10;1.33;;;;;;;19.70;71.42;98927.94;6217241;23;20146;-91
2022/04/26 20:15:01;;;;;;;5.07;2.20;;;;;;;19.67;71.59;98933.56;6216168;23;20153;-90
2022/04/26 20:17:26;;;;;;;5.47;2.30;;;;;;;19.70;71.80;98943.91;6212721;23;20604;-90
2022/04/26 20:19:52;;;;;;;5.73;1.97;;;;;;;19.69;72.13;98947.53;6189167;23;20150;-90
2022/04/26 20:22:18;;;;;;;4.60;1.87;;;;;;;19.79;71.45;98945.69;6214752;23;20169;-90
2022/04/26 20:24:43;;;;;;;6.00;1.83;;;;;;;19.90;71.13;98939.38;6214354;23;20149;-90
2022/04/26 20:33:14;;;;;;;2.63;1.47;;;;;;;19.91;70.17;98917.97;6154371;23;20229;-90
2022/04/26 20:35:39;;;;;;;3.53;2.03;;;;;;;19.80;71.31;98917.28;6215904;23;20540;-89
2022/04/26 20:38:05;;;;;;;10.40;1.67;;;;;;;19.77;71.50;98912.25;6216280;23;20586;-90
2022/04/26 20:40:30;;;;;;;4.37;1.60;;;;;;;19.63;72.84;98905.56;6215755;23;20150;-89
2022/04/26 20:42:57;;;;;;;3.17;1.67;;;;;;;19.71;72.28;98908.34;6216123;23;20156;-89
2022/04/26 20:45:23;;;;;;;5.77;1.80;;;;;;;19.69;72.33;98926.25;6215696;23;20215;-90
2022/04/26 20:47:49;;;;;;;5.00;1.40;;;;;;;19.71;72.60;98945.56;6189532;23;20240;-90
2022/04/26 20:50:15;;;;;;;3.60;1.53;;;;;;;19.64;73.04;98955.09;6215799;23;20239;-89
2022/04/26 20:52:40;;;;;;;5.43;1.70;;;;;;;19.54;73.64;98964.91;6216415;23;20149;-90
2022/04/26 20:55:06;;;;;;;4.90;1.70;;;;;;;19.62;72.53;98967.72;6189499;23;20480;-89
2022/04/26 20:57:32;;;;;;;5.03;2.13;;;;;;;19.58;72.37;98960.97;6215730;23;20180;-89
2022/04/26 20:59:58;;;;;;;5.07;1.90;;;;;;;19.45;72.21;98957.78;6216395;23;20146;-89
2022/04/26 21:02:23;;;;;;;2.13;1.47;;;;;;;19.43;72.20;98970.38;6215676;23;20168;-88
2022/04/26 21:04:49;;;;;;;3.03;1.50;;;;;;;19.41;72.44;98975.00;6215573;23;20150;-88
2022/04/26 21:07:14;;;;;;;6.37;1.87;;;;;;;19.37;72.29;98962.91;6189505;23;20226;-87
2022/04/26 21:09:40;;;;;;;7.70;2.40;;;;;;;19.34;71.86;98957.91;6189459;23;20164;-88
2022/04/26 21:12:06;;;;;;;6.53;2.20;;;;;;;19.32;71.92;98965.16;6189481;23;20160;-88
2022/04/26 21:14:31;;;;;;;7.57;1.90;;;;;;;19.37;71.98;98973.53;6215628;23;20221;-88
2022/04/26 21:16:57;;;;;;;9.13;1.83;;;;;;;19.34;72.25;98968.53;6215543;23;20149;-88
2022/04/26 21:19:22;;;;;;;5.77;1.77;;;;;;;19.35;72.86;98972.84;6216259;23;20216;-88
2022/04/26 21:21:48;;;;;;;3.53;1.97;;;;;;;19.38;72.62;98969.94;6215549;23;20380;-88
2022/04/26 21:24:13;;;;;;;4.93;2.10;;;;;;;19.44;72.27;98972.06;6215852;23;20146;-88
2022/04/26 21:26:39;;;;;;;3.13;1.80;;;;;;;19.48;71.60;98978.75;6215500;23;20335;-88
2022/04/26 21:29:04;;;;;;;3.57;2.30;;;;;;;19.50;70.81;98982.13;6215844;23;20177;-88
2022/04/26 21:31:29;;;;;;;2.83;1.83;;;;;;;19.47;70.35;98980.56;6215859;23;20150;-88
2022/04/26 21:33:55;;;;;;;3.87;2.27;;;;;;;19.44;70.16;98982.69;6215556;23;20145;-88
2022/04/26 21:36:20;;;;;;;3.87;2.20;;;;;;;19.48;69.87;98987.59;6215873;23;20169;-88
2022/04/26 21:38:46;;;;;;;6.87;2.20;;;;;;;19.44;69.69;98985.34;6189302;23;20227;-88
2022/04/26 21:41:11;;;;;;;3.67;2.30;;;;;;;19.41;69.39;98989.13;6215473;23;20148;-88
2022/04/26 21:43:37;;;;;;;4.00;2.30;;;;;;;19.35;69.80;98986.97;6215497;23;20231;-88
2022/04/26 21:46:07;;;;;;;3.27;2.00;;;;;;;19.32;70.18;98994.38;6189227;23;20201;-88
2022/04/26 21:48:33;;;;;;;7.93;2.60;;;;;;;19.17;69.76;98985.16;6189302;23;20154;-87
2022/04/26 21:53:43;;;;;;;3.20;2.17;;;;;;;18.59;72.10;98992.97;6217586;23;20580;-87
2022/04/26 21:56:09;;;;;;;9.00;2.50;;;;;;;18.35;73.56;99005.69;6217466;23;20171;-87
2022/04/26 21:58:34;;;;;;;5.17;2.60;;;;;;;18.23;74.36;99007.59;6191194;23;20238;-87
2022/04/26 22:01:00;;;;;;;6.70;2.77;;;;;;;18.16;74.66;99010.91;6217420;23;20157;-87
2022/04/26 22:03:26;;;;;;;8.40;2.57;;;;;;;18.22;74.66;99011.22;6217422;23;20157;-87
2022/04/26 22:05:51;;;;;;;11.00;2.97;;;;;;;18.02;75.34;99006.78;6217601;23;20536;-87
2022/04/26 22:08:17;;;;;;;7.40;2.70;;;;;;;17.88;76.10;99012.41;6217431;23;20160;-87
2022/04/26 22:10:44;;;;;;;6.57;2.90;;;;;;;17.85;76.80;99007.34;6217327;23;20142;-88
2022/04/26 22:13:10;;;;;;;8.27;3.00;;;;;;;17.66;77.41;99002.75;6217730;23;20223;-89
2022/04/26 22:15:36;;;;;;;4.57;2.50;;;;;;;17.50;79.29;98997.03;6217241;23;20142;-87
2022/04/26 22:18:03;;;;;;;7.17;2.93;;;;;;;17.65;78.52;98994.94;6217242;23;20174;-88
2022/04/26 22:20:28;;;;;;;6.30;2.43;;;;;;;17.79;77.65;98989.31;6217556;23;20150;-88
2022/04/26 22:22:54;;;;;;;9.93;3.13;;;;;;;17.92;76.91;98991.78;6217521;23;20231;-88
2022/04/26 22:25:20;;;;;;;5.20;2.43;;;;;;;17.99;76.61;98993.78;6216895;23;20177;-88
2022/04/26 22:27:47;;;;;;;7.73;2.27;;;;;;;17.98;76.58;98991.22;6217109;23;20180;-88
2022/04/26 22:30:12;;;;;;;7.73;3.13;;;;;;;18.05;76.02;98992.41;6217141;23;20169;-88
2022/04/26 22:32:38;;;;;;;5.73;2.40;;;;;;;18.11;75.40;98997.19;6190932;23;20694;-88
2022/04/26 22:35:07;;;;;;;5.30;2.03;;;;;;;18.19;74.99;98990.25;6217058;23;20150;-89
2022/04/26 22:37:34;;;;;;;3.70;2.20;;;;;;;18.29;74.30;98990.31;6217074;23;20150;-89
2022/04/26 22:40:01;;;;;;;5.00;2.53;;;;;;;18.33;74.26;98989.06;6216984;23;20495;-89
2022/04/26 22:42:26;;;;;;;3.10;1.70;;;;;;;18.29;74.08;98993.78;6217038;23;20150;-89
2022/04/26 22:44:52;;;;;;;2.93;1.70;;;;;;;18.29;74.12;98988.47;6216867;23;20180;-89
2022/04/26 22:47:17;;;;;;;5.83;2.10;;;;;;;18.31;73.58;98989.22;6217984;23;20149;-89
2022/04/26 22:49:43;;;;;;;6.43;1.87;;;;;;;18.33;73.17;98983.75;6217288;23;20145;-89
2022/04/26 22:52:09;;;;;;;4.43;1.67;;;;;;;18.34;72.83;98985.44;6216920;23;20164;-89
2022/04/26 22:54:34;;;;;;;3.27;1.90;;;;;;;18.29;72.64;98985.00;6216885;23;20182;-89
2022/04/26 22:57:01;;;;;;;4.40;2.20;;;;;;;18.24;72.30;98990.69;6216873;23;20221;-89
2022/04/26 22:59:26;;;;;;;5.20;2.47;;;;;;;18.18;72.30;98988.59;6217218;23;20146;-89
2022/04/26 23:01:52;;;;;;;8.07;2.40;;;;;;;18.17;72.56;98988.69;6217181;23;20150;-88
2022/04/26 23:04:18;;;;;;;4.17;2.67;;;;;;;18.09;73.26;98991.16;6216900;23;20153;-89
2022/04/26 23:06:43;;;;;;;7.57;2.60;;;;;;;17.99;73.79;98985.81;6216697;23;20183;-89
2022/04/26 23:09:09;;;;;;;4.33;2.07;;;;;;;17.95;74.29;98984.38;6217086;23;20230;-88
2022/04/26 23:11:34;;;;;;;6.47;1.70;;;;;;;17.98;74.26;98984.13;6190541;23;20169;-88
2022/04/26 23:14:00;;;;;;;5.10;2.07;;;;;;;17.98;74.04;98977.97;6216743;23;20149;-88
2022/04/26 23:16:25;;;;;;;4.40;2.13;;;;;;;17.96;74.31;98986.06;6217022;23;20146;-88
2022/04/26 23:18:51;;;;;;;5.17;2.73;;;;;;;18.00;74.13;98989.31;6217010;23;20164;-89
2022/04/26 23:21:16;;;;;;;7.23;3.13;;;;;;;18.02;73.59;98982.06;6216619;23;20148;-89
2022/04/26 23:23:42;;;;;;;10.07;2.00;;;;;;;17.97;73.45;98979.81;6216987;23;20555;-89
2022/04/26 23:26:07;;;;;;;3.10;2.20;;;;;;;17.96;73.77;98972.81;6216503;23;20185;-89
2022/04/26 23:28:34;;;;;;;5.83;2.17;;;;;;;17.96;73.55;98977.28;6216613;23;20150;-89
2022/04/26 23:31:00;;;;;;;6.77;2.43;;;;;;;17.89;73.13;98974.31;6216864;23;20211;-89
2022/04/26 23:33:25;;;;;;;10.13;2.37;;;;;;;17.81;72.58;98971.47;6216916;23;20154;-90
2022/04/26 23:35:51;;;;;;;5.23;1.53;;;;;;;17.78;72.20;98969.94;6216521;23;20149;-89
2022/04/26 23:38:16;;;;;;;10.50;3.20;;;;;;;17.81;72.13;98966.16;6216500;23;20146;-89
2022/04/26 23:40:46;;;;;;;3.83;1.90;;;;;;;17.73;72.09;98961.53;6216484;23;20538;-90
2022/04/26 23:43:12;;;;;;;2.97;1.70;;;;;;;17.69;72.17;98960.06;6190261;23;20618;-89
2022/04/26 23:45:39;;;;;;;5.53;2.00;;;;;;;17.62;72.49;98969.53;6190054;23;20223;-89
2022/04/26 23:48:05;;;;;;;6.70;2.47;;;;;;;17.55;72.49;98965.72;6216384;23;20147;-89
2022/04/26 23:53:14;;;;;;;5.00;2.10;;;;;;;17.50;72.61;98967.88;6216815;23;20281;-89
2022/04/26 23:55:41;;;;;;;2.80;1.60;;;;;;;17.55;72.38;98963.06;6216363;23;20195;-89
2022/04/26 23:58:07;;;;;;;6.47;2.53;;;;;;;17.59;71.87;98972.44;6216284;23;20225;-89
